sensor_id;sensor_type;location;lat;lon;timestamp;pressure;altitude;pressure_sealevel;temperature;humidity
68137;BME280;54939;50.826;9.030;2023-07-13T00:00:22;98492.72;;;30.56;36.16
68137;BME280;54939;50.826;9.030;2023-07-13T00:00:53;98492.72;;;30.56;36.52
68137;BME280;54939;50.826;9.030;2023-07-13T00:01:23;98490.75;;;30.57;36.16
68137;BME280;54939;50.826;9.030;2023-07-13T00:01:54;98493.81;;;30.55;36.56
68137;BME280;54939;50.826;9.030;2023-07-13T00:02:24;98494.66;;;30.56;36.47
68137;BME280;54939;50.826;9.030;2023-07-13T00:02:56;98496.59;;;30.55;36.13
68137;BME280;54939;50.826;9.030;2023-07-13T00:03:26;98491.91;;;30.56;36.53
68137;BME280;54939;50.826;9.030;2023-07-13T00:03:57;98499.34;;;30.55;36.20
68137;BME280;54939;50.826;9.030;2023-07-13T00:04:27;98493.81;;;30.55;36.43
68137;BME280;54939;50.826;9.030;2023-07-13T00:04:58;98503.75;;;30.56;36.03
68137;BME280;54939;50.826;9.030;2023-07-13T00:05:28;98500.16;;;30.56;36.46
68137;BME280;54939;50.826;9.030;2023-07-13T00:05:59;98495.75;;;30.55;36.11
68137;BME280;54939;50.826;9.030;2023-07-13T00:06:30;98495.75;;;30.55;36.19
68137;BME280;54939;50.826;9.030;2023-07-13T00:07:02;98498.50;;;30.55;36.55
68137;BME280;54939;50.826;9.030;2023-07-13T00:07:33;98495.75;;;30.55;36.28
68137;BME280;54939;50.826;9.030;2023-07-13T00:08:03;98506.78;;;30.55;36.22
68137;BME280;54939;50.826;9.030;2023-07-13T00:08:34;98495.75;;;30.55;36.10
68137;BME280;54939;50.826;9.030;2023-07-13T00:09:04;98495.75;;;30.55;36.50
68137;BME280;54939;50.826;9.030;2023-07-13T00:09:34;98495.75;;;30.55;36.09
68137;BME280;54939;50.826;9.030;2023-07-13T00:10:05;98491.34;;;30.53;36.12
68137;BME280;54939;50.826;9.030;2023-07-13T00:10:38;98490.25;;;30.55;36.46
68137;BME280;54939;50.826;9.030;2023-07-13T00:11:09;98498.50;;;30.55;36.13
68137;BME280;54939;50.826;9.030;2023-07-13T00:11:40;98493.00;;;30.55;36.45
68137;BME280;54939;50.826;9.030;2023-07-13T00:12:24;98493.00;;;30.55;36.49
68137;BME280;54939;50.826;9.030;2023-07-13T00:12:55;98490.53;;;30.53;36.14
68137;BME280;54939;50.826;9.030;2023-07-13T00:13:25;98493.28;;;30.53;36.54
68137;BME280;54939;50.826;9.030;2023-07-13T00:13:55;98487.78;;;30.53;36.42
68137;BME280;54939;50.826;9.030;2023-07-13T00:14:26;98492.47;;;30.52;36.46
68137;BME280;54939;50.826;9.030;2023-07-13T00:14:57;98483.09;;;30.53;36.50
68137;BME280;54939;50.826;9.030;2023-07-13T00:15:28;98490.53;;;30.53;36.55
68137;BME280;54939;50.826;9.030;2023-07-13T00:16:01;98491.34;;;30.53;36.14
68137;BME280;54939;50.826;9.030;2023-07-13T00:16:33;98491.34;;;30.53;36.08
68137;BME280;54939;50.826;9.030;2023-07-13T00:17:03;98485.03;;;30.53;36.59
68137;BME280;54939;50.826;9.030;2023-07-13T00:17:33;98491.34;;;30.53;36.12
68137;BME280;54939;50.826;9.030;2023-07-13T00:18:03;98491.63;;;30.52;36.07
68137;BME280;54939;50.826;9.030;2023-07-13T00:18:33;98495.22;;;30.52;36.17
68137;BME280;54939;50.826;9.030;2023-07-13T00:19:04;98490.53;;;30.53;36.41
68137;BME280;54939;50.826;9.030;2023-07-13T00:19:35;98493.28;;;30.53;36.46
68137;BME280;54939;50.826;9.030;2023-07-13T00:20:06;98494.09;;;30.53;36.49
68137;BME280;54939;50.826;9.030;2023-07-13T00:20:37;98489.72;;;30.52;36.36
68137;BME280;54939;50.826;9.030;2023-07-13T00:21:07;98496.03;;;30.53;36.46
68137;BME280;54939;50.826;9.030;2023-07-13T00:21:38;98497.69;;;30.54;36.23
68137;BME280;54939;50.826;9.030;2023-07-13T00:22:08;98494.09;;;30.53;36.47
68137;BME280;54939;50.826;9.030;2023-07-13T00:22:38;98493.28;;;30.53;36.56
68137;BME280;54939;50.826;9.030;2023-07-13T00:23:09;98486.13;;;30.52;36.49
68137;BME280;54939;50.826;9.030;2023-07-13T00:23:39;98496.03;;;30.53;36.10
68137;BME280;54939;50.826;9.030;2023-07-13T00:24:11;98494.41;;;30.52;36.11
68137;BME280;54939;50.826;9.030;2023-07-13T00:24:43;98495.50;;;30.51;36.06
68137;BME280;54939;50.826;9.030;2023-07-13T00:25:13;98489.16;;;30.50;36.36
68137;BME280;54939;50.826;9.030;2023-07-13T00:25:43;98486.41;;;30.50;36.57
68137;BME280;54939;50.826;9.030;2023-07-13T00:26:13;98490.00;;;30.51;36.27
68137;BME280;54939;50.826;9.030;2023-07-13T00:26:44;98497.16;;;30.52;36.46
68137;BME280;54939;50.826;9.030;2023-07-13T00:27:17;98493.56;;;30.51;36.40
68137;BME280;54939;50.826;9.030;2023-07-13T00:27:47;98490.81;;;30.51;36.14
68137;BME280;54939;50.826;9.030;2023-07-13T00:28:20;98493.84;;;30.50;36.16
68137;BME280;54939;50.826;9.030;2023-07-13T00:28:51;98492.75;;;30.51;36.17
68137;BME280;54939;50.826;9.030;2023-07-13T00:29:22;98482.53;;;30.51;36.51
68137;BME280;54939;50.826;9.030;2023-07-13T00:29:52;98489.16;;;30.50;36.30
68137;BME280;54939;50.826;9.030;2023-07-13T00:30:22;98489.16;;;30.50;36.45
68137;BME280;54939;50.826;9.030;2023-07-13T00:30:53;98492.75;;;30.51;36.43
68137;BME280;54939;50.826;9.030;2023-07-13T00:31:24;98486.41;;;30.50;36.56
68137;BME280;54939;50.826;9.030;2023-07-13T00:31:54;98485.59;;;30.50;36.52
68137;BME280;54939;50.826;9.030;2023-07-13T00:32:24;98489.16;;;30.50;36.54
68137;BME280;54939;50.826;9.030;2023-07-13T00:32:58;98487.22;;;30.51;36.21
68137;BME280;54939;50.826;9.030;2023-07-13T00:33:31;98495.50;;;30.51;36.50
68137;BME280;54939;50.826;9.030;2023-07-13T00:34:01;98498.25;;;30.51;36.61
68137;BME280;54939;50.826;9.030;2023-07-13T00:34:32;98506.53;;;30.51;36.62
68137;BME280;54939;50.826;9.030;2023-07-13T00:35:02;98494.69;;;30.50;36.11
68137;BME280;54939;50.826;9.030;2023-07-13T00:35:34;98498.25;;;30.51;36.37
68137;BME280;54939;50.826;9.030;2023-07-13T00:37:20;98497.44;;;30.50;36.19
68137;BME280;54939;50.826;9.030;2023-07-13T00:37:51;98502.13;;;30.50;36.54
68137;BME280;54939;50.826;9.030;2023-07-13T00:38:21;98498.56;;;30.49;36.43
68137;BME280;54939;50.826;9.030;2023-07-13T00:38:52;98487.25;;;30.46;36.20
68137;BME280;54939;50.826;9.030;2023-07-13T00:39:22;98494.97;;;30.49;36.43
68137;BME280;54939;50.826;9.030;2023-07-13T00:39:53;98493.84;;;30.50;36.13
68137;BME280;54939;50.826;9.030;2023-07-13T00:40:23;98499.34;;;30.50;36.21
68137;BME280;54939;50.826;9.030;2023-07-13T00:40:54;98494.97;;;30.49;36.22
68137;BME280;54939;50.826;9.030;2023-07-13T00:41:24;98499.34;;;30.50;36.32
68137;BME280;54939;50.826;9.030;2023-07-13T00:41:54;98500.19;;;30.50;36.18
68137;BME280;54939;50.826;9.030;2023-07-13T00:42:25;98501.31;;;30.49;36.46
68137;BME280;54939;50.826;9.030;2023-07-13T00:42:56;98499.34;;;30.50;36.42
68137;BME280;54939;50.826;9.030;2023-07-13T00:43:27;98498.56;;;30.49;36.54
68137;BME280;54939;50.826;9.030;2023-07-13T00:43:58;98506.84;;;30.49;36.08
68137;BME280;54939;50.826;9.030;2023-07-13T00:44:28;98503.22;;;30.49;36.50
68137;BME280;54939;50.826;9.030;2023-07-13T00:46:50;98499.63;;;30.48;36.41
68137;BME280;54939;50.826;9.030;2023-07-13T00:47:20;98507.91;;;30.48;36.32
68137;BME280;54939;50.826;9.030;2023-07-13T00:47:51;98507.09;;;30.48;36.53
68137;BME280;54939;50.826;9.030;2023-07-13T00:48:21;98509.00;;;30.47;36.30
68137;BME280;54939;50.826;9.030;2023-07-13T00:48:54;98506.25;;;30.47;36.55
68137;BME280;54939;50.826;9.030;2023-07-13T00:49:25;98510.66;;;30.48;36.09
68137;BME280;54939;50.826;9.030;2023-07-13T00:49:56;98502.69;;;30.47;36.21
68137;BME280;54939;50.826;9.030;2023-07-13T00:50:27;98506.25;;;30.47;36.49
68137;BME280;54939;50.826;9.030;2023-07-13T00:51:37;98510.13;;;30.46;36.65
68137;BME280;54939;50.826;9.030;2023-07-13T00:52:09;98507.38;;;30.46;36.51
68137;BME280;54939;50.826;9.030;2023-07-13T00:52:40;98514.81;;;30.46;36.24
68137;BME280;54939;50.826;9.030;2023-07-13T00:53:11;98518.38;;;30.46;36.24
68137;BME280;54939;50.826;9.030;2023-07-13T00:53:42;98515.91;;;30.45;36.17
68137;BME280;54939;50.826;9.030;2023-07-13T00:54:14;98519.19;;;30.47;36.34
68137;BME280;54939;50.826;9.030;2023-07-13T00:54:45;98512.88;;;30.46;36.15
68137;BME280;54939;50.826;9.030;2023-07-13T00:55:16;98514.53;;;30.47;36.17
68137;BME280;54939;50.826;9.030;2023-07-13T00:55:48;98511.75;;;30.47;36.16
68137;BME280;54939;50.826;9.030;2023-07-13T00:56:19;98514.81;;;30.46;36.32
68137;BME280;54939;50.826;9.030;2023-07-13T00:56:50;98512.03;;;30.46;36.12
68137;BME280;54939;50.826;9.030;2023-07-13T00:57:21;98512.03;;;30.46;36.40
68137;BME280;54939;50.826;9.030;2023-07-13T00:57:51;98516.44;;;30.47;36.21
68137;BME280;54939;50.826;9.030;2023-07-13T00:58:22;98512.03;;;30.46;36.24
68137;BME280;54939;50.826;9.030;2023-07-13T00:58:53;98510.94;;;30.47;36.67
68137;BME280;54939;50.826;9.030;2023-07-13T00:59:24;98512.03;;;30.46;36.45
68137;BME280;54939;50.826;9.030;2023-07-13T00:59:55;98516.72;;;30.45;36.57
68137;BME280;54939;50.826;9.030;2023-07-13T01:00:28;98514.81;;;30.46;36.51
68137;BME280;54939;50.826;9.030;2023-07-13T01:00:59;98518.66;;;30.45;36.48
68137;BME280;54939;50.826;9.030;2023-07-13T01:01:29;98515.91;;;30.45;36.52
68137;BME280;54939;50.826;9.030;2023-07-13T01:01:59;98523.06;;;30.46;36.53
68137;BME280;54939;50.826;9.030;2023-07-13T01:02:30;98525.81;;;30.46;36.59
68137;BME280;54939;50.826;9.030;2023-07-13T01:03:01;98522.25;;;30.45;36.15
68137;BME280;54939;50.826;9.030;2023-07-13T01:03:34;98519.47;;;30.45;36.33
68137;BME280;54939;50.826;9.030;2023-07-13T01:04:04;98522.25;;;30.45;36.35
68137;BME280;54939;50.826;9.030;2023-07-13T01:04:37;98524.16;;;30.45;36.15
68137;BME280;54939;50.826;9.030;2023-07-13T01:05:18;98517.84;;;30.44;36.29
68137;BME280;54939;50.826;9.030;2023-07-13T01:05:49;98517.00;;;30.44;36.20
68137;BME280;54939;50.826;9.030;2023-07-13T01:06:20;98526.91;;;30.45;36.44
68137;BME280;54939;50.826;9.030;2023-07-13T01:06:50;98521.41;;;30.45;36.20
68137;BME280;54939;50.826;9.030;2023-07-13T01:07:20;98526.91;;;30.45;36.16
68137;BME280;54939;50.826;9.030;2023-07-13T01:07:51;98515.06;;;30.44;36.18
68137;BME280;54939;50.826;9.030;2023-07-13T01:08:22;98521.41;;;30.45;36.19
68137;BME280;54939;50.826;9.030;2023-07-13T01:08:52;98525.28;;;30.44;36.20
68137;BME280;54939;50.826;9.030;2023-07-13T01:09:22;98520.59;;;30.44;36.60
68137;BME280;54939;50.826;9.030;2023-07-13T01:09:52;98514.25;;;30.44;36.18
68137;BME280;54939;50.826;9.030;2023-07-13T01:10:23;98524.16;;;30.45;36.45
68137;BME280;54939;50.826;9.030;2023-07-13T01:10:54;98512.31;;;30.44;36.29
68137;BME280;54939;50.826;9.030;2023-07-13T01:11:25;98525.28;;;30.44;36.38
68137;BME280;54939;50.826;9.030;2023-07-13T01:11:56;98526.09;;;30.44;36.54
68137;BME280;54939;50.826;9.030;2023-07-13T01:12:27;98523.34;;;30.44;36.18
68137;BME280;54939;50.826;9.030;2023-07-13T01:12:57;98525.28;;;30.44;36.17
68137;BME280;54939;50.826;9.030;2023-07-13T01:13:27;98528.84;;;30.44;36.20
68137;BME280;54939;50.826;9.030;2023-07-13T01:13:57;98528.03;;;30.44;36.26
68137;BME280;54939;50.826;9.030;2023-07-13T01:14:27;98525.28;;;30.44;36.42
68137;BME280;54939;50.826;9.030;2023-07-13T01:14:58;98530.78;;;30.44;36.18
68137;BME280;54939;50.826;9.030;2023-07-13T01:15:39;98529.97;;;30.43;36.40
68137;BME280;54939;50.826;9.030;2023-07-13T01:16:13;98526.38;;;30.43;36.24
68137;BME280;54939;50.826;9.030;2023-07-13T01:16:45;98537.41;;;30.43;36.60
68137;BME280;54939;50.826;9.030;2023-07-13T01:17:17;98535.47;;;30.43;36.35
68137;BME280;54939;50.826;9.030;2023-07-13T01:17:47;98531.88;;;30.43;36.21
68137;BME280;54939;50.826;9.030;2023-07-13T01:18:18;98529.44;;;30.41;36.34
68137;BME280;54939;50.826;9.030;2023-07-13T01:18:50;98523.09;;;30.41;36.56
68137;BME280;54939;50.826;9.030;2023-07-13T01:19:36;98526.69;;;30.41;36.44
68137;BME280;54939;50.826;9.030;2023-07-13T01:20:07;98526.69;;;30.41;36.43
68137;BME280;54939;50.826;9.030;2023-07-13T01:20:39;98529.44;;;30.41;36.18
68137;BME280;54939;50.826;9.030;2023-07-13T01:21:09;98524.75;;;30.42;36.62
68137;BME280;54939;50.826;9.030;2023-07-13T01:21:39;98523.94;;;30.41;36.31
68137;BME280;54939;50.826;9.030;2023-07-13T01:22:15;98524.75;;;30.42;36.16
68137;BME280;54939;50.826;9.030;2023-07-13T01:22:46;98528.63;;;30.41;36.62
68137;BME280;54939;50.826;9.030;2023-07-13T01:23:16;98525.88;;;30.41;36.40
68137;BME280;54939;50.826;9.030;2023-07-13T01:23:46;98528.63;;;30.41;36.59
68137;BME280;54939;50.826;9.030;2023-07-13T01:24:16;98525.88;;;30.41;36.61
68137;BME280;54939;50.826;9.030;2023-07-13T01:24:47;98525.88;;;30.41;36.41
68137;BME280;54939;50.826;9.030;2023-07-13T01:25:18;98525.03;;;30.40;36.70
68137;BME280;54939;50.826;9.030;2023-07-13T01:25:48;98526.97;;;30.40;36.21
68137;BME280;54939;50.826;9.030;2023-07-13T01:26:18;98528.91;;;30.39;36.49
68137;BME280;54939;50.826;9.030;2023-07-13T01:26:48;98525.03;;;30.40;36.32
68137;BME280;54939;50.826;9.030;2023-07-13T01:27:23;98526.97;;;30.40;36.37
68137;BME280;54939;50.826;9.030;2023-07-13T01:27:54;98521.50;;;30.35;36.14
68137;BME280;54939;50.826;9.030;2023-07-13T01:28:25;98521.47;;;30.40;36.29
68137;BME280;54939;50.826;9.030;2023-07-13T01:28:56;98526.16;;;30.39;36.37
68137;BME280;54939;50.826;9.030;2023-07-13T01:29:27;98530.81;;;30.39;36.53
68137;BME280;54939;50.826;9.030;2023-07-13T01:29:57;98529.19;;;30.38;36.50
68137;BME280;54939;50.826;9.030;2023-07-13T01:30:33;98530.00;;;30.38;36.65
68137;BME280;54939;50.826;9.030;2023-07-13T01:31:03;98520.91;;;30.38;36.27
68137;BME280;54939;50.826;9.030;2023-07-13T01:31:34;98528.06;;;30.39;36.64
68137;BME280;54939;50.826;9.030;2023-07-13T01:32:05;98528.06;;;30.39;36.51
68137;BME280;54939;50.826;9.030;2023-07-13T01:32:38;98526.41;;;30.38;36.48
68137;BME280;54939;50.826;9.030;2023-07-13T01:33:12;98525.31;;;30.39;36.17
68137;BME280;54939;50.826;9.030;2023-07-13T01:33:43;98523.66;;;30.38;36.42
68137;BME280;54939;50.826;9.030;2023-07-13T01:34:13;98527.25;;;30.38;36.31
68137;BME280;54939;50.826;9.030;2023-07-13T01:34:43;98528.06;;;30.39;36.47
68137;BME280;54939;50.826;9.030;2023-07-13T01:35:14;98529.19;;;30.38;36.29
68137;BME280;54939;50.826;9.030;2023-07-13T01:35:44;98529.19;;;30.38;36.76
68137;BME280;54939;50.826;9.030;2023-07-13T01:36:15;98527.53;;;30.37;36.25
68137;BME280;54939;50.826;9.030;2023-07-13T01:36:45;98521.19;;;30.36;36.24
68137;BME280;54939;50.826;9.030;2023-07-13T01:37:15;98524.78;;;30.37;36.47
68137;BME280;54939;50.826;9.030;2023-07-13T01:37:46;98531.94;;;30.38;36.51
68137;BME280;54939;50.826;9.030;2023-07-13T01:38:20;98524.78;;;30.37;36.48
68137;BME280;54939;50.826;9.030;2023-07-13T01:38:50;98526.41;;;30.38;36.40
68137;BME280;54939;50.826;9.030;2023-07-13T01:39:21;98522.84;;;30.37;36.52
68137;BME280;54939;50.826;9.030;2023-07-13T01:39:52;98522.84;;;30.37;36.59
68137;BME280;54939;50.826;9.030;2023-07-13T01:40:23;98520.09;;;30.37;36.54
68137;BME280;54939;50.826;9.030;2023-07-13T01:40:53;98519.25;;;30.37;36.64
68137;BME280;54939;50.826;9.030;2023-07-13T01:41:23;98522.84;;;30.37;36.66
68137;BME280;54939;50.826;9.030;2023-07-13T01:41:53;98519.25;;;30.37;36.68
68137;BME280;54939;50.826;9.030;2023-07-13T01:42:23;98517.63;;;30.36;36.54
68137;BME280;54939;50.826;9.030;2023-07-13T01:42:54;98515.69;;;30.36;36.28
68137;BME280;54939;50.826;9.030;2023-07-13T01:43:24;98514.88;;;30.36;36.40
68137;BME280;54939;50.826;9.030;2023-07-13T01:43:54;98516.81;;;30.35;36.33
68137;BME280;54939;50.826;9.030;2023-07-13T01:44:24;98514.06;;;30.35;36.33
68137;BME280;54939;50.826;9.030;2023-07-13T01:44:55;98518.75;;;30.35;36.33
68137;BME280;54939;50.826;9.030;2023-07-13T01:45:26;98519.56;;;30.35;36.49
68137;BME280;54939;50.826;9.030;2023-07-13T01:45:56;98523.94;;;30.36;36.24
68137;BME280;54939;50.826;9.030;2023-07-13T01:46:26;98522.03;;;30.37;36.66
68137;BME280;54939;50.826;9.030;2023-07-13T01:46:57;98523.13;;;30.36;36.36
68137;BME280;54939;50.826;9.030;2023-07-13T01:47:27;98517.63;;;30.36;36.50
68137;BME280;54939;50.826;9.030;2023-07-13T01:47:59;98518.75;;;30.35;36.21
68137;BME280;54939;50.826;9.030;2023-07-13T01:48:29;98519.56;;;30.35;36.43
68137;BME280;54939;50.826;9.030;2023-07-13T01:48:59;98522.03;;;30.37;36.22
68137;BME280;54939;50.826;9.030;2023-07-13T01:49:29;98516.81;;;30.35;36.34
68137;BME280;54939;50.826;9.030;2023-07-13T01:49:59;98517.94;;;30.34;36.20
68137;BME280;54939;50.826;9.030;2023-07-13T01:50:30;98522.34;;;30.35;36.19
68137;BME280;54939;50.826;9.030;2023-07-13T01:51:00;98523.44;;;30.34;36.48
68137;BME280;54939;50.826;9.030;2023-07-13T01:51:30;98516.00;;;30.35;36.44
68137;BME280;54939;50.826;9.030;2023-07-13T01:52:00;98514.34;;;30.34;36.35
68137;BME280;54939;50.826;9.030;2023-07-13T01:52:30;98515.19;;;30.34;36.56
68137;BME280;54939;50.826;9.030;2023-07-13T01:53:00;98517.09;;;30.34;36.33
68137;BME280;54939;50.826;9.030;2023-07-13T01:53:31;98509.66;;;30.34;36.61
68137;BME280;54939;50.826;9.030;2023-07-13T01:54:01;98515.19;;;30.34;36.76
68137;BME280;54939;50.826;9.030;2023-07-13T01:54:31;98518.75;;;30.35;36.54
68137;BME280;54939;50.826;9.030;2023-07-13T01:55:03;98514.34;;;30.34;36.36
68137;BME280;54939;50.826;9.030;2023-07-13T01:55:34;98509.94;;;30.33;36.30
68137;BME280;54939;50.826;9.030;2023-07-13T01:56:04;98507.19;;;30.33;36.30
68137;BME280;54939;50.826;9.030;2023-07-13T01:56:34;98509.13;;;30.32;36.48
68137;BME280;54939;50.826;9.030;2023-07-13T01:57:05;98514.63;;;30.32;36.29
68137;BME280;54939;50.826;9.030;2023-07-13T01:57:35;98514.63;;;30.32;36.54
68137;BME280;54939;50.826;9.030;2023-07-13T01:58:05;98511.06;;;30.32;36.25
68137;BME280;54939;50.826;9.030;2023-07-13T01:58:36;98515.44;;;30.33;36.54
68137;BME280;54939;50.826;9.030;2023-07-13T01:59:06;98518.22;;;30.33;36.26
68137;BME280;54939;50.826;9.030;2023-07-13T01:59:36;98517.38;;;30.32;36.61
68137;BME280;54939;50.826;9.030;2023-07-13T02:00:08;98517.38;;;30.32;36.48
68137;BME280;54939;50.826;9.030;2023-07-13T02:00:38;98522.06;;;30.32;36.65
68137;BME280;54939;50.826;9.030;2023-07-13T02:01:08;98520.13;;;30.32;36.32
68137;BME280;54939;50.826;9.030;2023-07-13T02:01:39;98520.13;;;30.32;36.59
68137;BME280;54939;50.826;9.030;2023-07-13T02:02:09;98511.06;;;30.32;36.44
68137;BME280;54939;50.826;9.030;2023-07-13T02:02:39;98520.13;;;30.32;36.63
68137;BME280;54939;50.826;9.030;2023-07-13T02:03:09;98514.63;;;30.32;36.36
68137;BME280;54939;50.826;9.030;2023-07-13T02:03:39;98517.38;;;30.32;36.40
68137;BME280;54939;50.826;9.030;2023-07-13T02:04:09;98512.97;;;30.31;36.38
68137;BME280;54939;50.826;9.030;2023-07-13T02:04:40;98521.25;;;30.31;36.33
68137;BME280;54939;50.826;9.030;2023-07-13T02:05:11;98516.84;;;30.30;36.45
68137;BME280;54939;50.826;9.030;2023-07-13T02:05:41;98516.84;;;30.30;36.19
68137;BME280;54939;50.826;9.030;2023-07-13T02:06:11;98519.59;;;30.30;36.73
68137;BME280;54939;50.826;9.030;2023-07-13T02:06:42;98525.09;;;30.30;36.40
68137;BME280;54939;50.826;9.030;2023-07-13T02:07:12;98516.00;;;30.30;36.29
68137;BME280;54939;50.826;9.030;2023-07-13T02:07:42;98523.16;;;30.31;36.23
68137;BME280;54939;50.826;9.030;2023-07-13T02:08:12;98516.00;;;30.30;36.30
68137;BME280;54939;50.826;9.030;2023-07-13T02:08:43;98516.00;;;30.30;36.32
68137;BME280;54939;50.826;9.030;2023-07-13T02:09:13;98510.50;;;30.30;36.26
68137;BME280;54939;50.826;9.030;2023-07-13T02:09:43;98515.19;;;30.29;36.51
68137;BME280;54939;50.826;9.030;2023-07-13T02:10:13;98516.00;;;30.30;36.36
68137;BME280;54939;50.826;9.030;2023-07-13T02:10:43;98517.94;;;30.29;36.35
68137;BME280;54939;50.826;9.030;2023-07-13T02:11:13;98523.44;;;30.29;36.62
68137;BME280;54939;50.826;9.030;2023-07-13T02:11:44;98520.69;;;30.29;36.24
68137;BME280;54939;50.826;9.030;2023-07-13T02:12:14;98515.19;;;30.29;36.29
68137;BME280;54939;50.826;9.030;2023-07-13T02:12:44;98513.25;;;30.30;36.24
68137;BME280;54939;50.826;9.030;2023-07-13T02:13:14;98522.66;;;30.29;36.44
68137;BME280;54939;50.826;9.030;2023-07-13T02:13:44;98510.81;;;30.28;36.50
68137;BME280;54939;50.826;9.030;2023-07-13T02:14:15;98515.50;;;30.28;36.38
68137;BME280;54939;50.826;9.030;2023-07-13T02:14:45;98515.50;;;30.28;36.51
68137;BME280;54939;50.826;9.030;2023-07-13T02:15:15;98510.00;;;30.28;36.27
68137;BME280;54939;50.826;9.030;2023-07-13T02:15:46;98514.69;;;30.27;36.59
68137;BME280;54939;50.826;9.030;2023-07-13T02:16:16;98512.75;;;30.28;36.35
68137;BME280;54939;50.826;9.030;2023-07-13T02:16:46;98515.50;;;30.28;36.42
68137;BME280;54939;50.826;9.030;2023-07-13T02:17:18;98512.75;;;30.28;36.33
68137;BME280;54939;50.826;9.030;2023-07-13T02:17:48;98519.06;;;30.28;36.67
68137;BME280;54939;50.826;9.030;2023-07-13T02:18:18;98521.84;;;30.28;36.51
68137;BME280;54939;50.826;9.030;2023-07-13T02:18:48;98513.84;;;30.27;36.40
68137;BME280;54939;50.826;9.030;2023-07-13T02:19:22;98512.75;;;30.28;36.69
68137;BME280;54939;50.826;9.030;2023-07-13T02:19:52;98507.50;;;30.26;36.62
68137;BME280;54939;50.826;9.030;2023-07-13T02:20:22;98504.75;;;30.26;36.62
68137;BME280;54939;50.826;9.030;2023-07-13T02:20:52;98510.00;;;30.28;36.38
68137;BME280;54939;50.826;9.030;2023-07-13T02:21:23;98510.28;;;30.26;36.29
68137;BME280;54939;50.826;9.030;2023-07-13T02:21:53;98510.56;;;30.25;36.68
68137;BME280;54939;50.826;9.030;2023-07-13T02:22:23;98512.19;;;30.26;36.68
68137;BME280;54939;50.826;9.030;2023-07-13T02:22:54;98508.34;;;30.27;36.66
68137;BME280;54939;50.826;9.030;2023-07-13T02:23:24;98514.94;;;30.26;36.61
68137;BME280;54939;50.826;9.030;2023-07-13T02:23:54;98511.38;;;30.25;36.39
68137;BME280;54939;50.826;9.030;2023-07-13T02:24:24;98519.63;;;30.25;36.46
68137;BME280;54939;50.826;9.030;2023-07-13T02:24:55;98519.63;;;30.25;36.54
68137;BME280;54939;50.826;9.030;2023-07-13T02:25:25;98514.13;;;30.25;36.24
68137;BME280;54939;50.826;9.030;2023-07-13T02:25:57;98518.53;;;30.26;36.58
68137;BME280;54939;50.826;9.030;2023-07-13T02:26:27;98516.06;;;30.25;36.60
68137;BME280;54939;50.826;9.030;2023-07-13T02:26:57;98514.13;;;30.25;36.68
68137;BME280;54939;50.826;9.030;2023-07-13T02:27:27;98518.81;;;30.25;36.55
68137;BME280;54939;50.826;9.030;2023-07-13T02:27:58;98522.66;;;30.24;36.33
68137;BME280;54939;50.826;9.030;2023-07-13T02:28:28;98520.75;;;30.24;36.32
68137;BME280;54939;50.826;9.030;2023-07-13T02:28:58;98523.50;;;30.24;36.52
68137;BME280;54939;50.826;9.030;2023-07-13T02:29:28;98517.97;;;30.24;36.72
68137;BME280;54939;50.826;9.030;2023-07-13T02:29:58;98527.06;;;30.25;36.58
68137;BME280;54939;50.826;9.030;2023-07-13T02:30:28;98523.22;;;30.26;36.64
68137;BME280;54939;50.826;9.030;2023-07-13T02:31:09;98512.47;;;30.24;36.50
68137;BME280;54939;50.826;9.030;2023-07-13T02:31:40;98525.41;;;30.24;36.56
68137;BME280;54939;50.826;9.030;2023-07-13T02:32:10;98520.75;;;30.24;36.19
68137;BME280;54939;50.826;9.030;2023-07-13T02:32:40;98524.59;;;30.23;36.30
68137;BME280;54939;50.826;9.030;2023-07-13T02:33:10;98522.66;;;30.24;36.21
68137;BME280;54939;50.826;9.030;2023-07-13T02:33:41;98525.41;;;30.24;36.30
68137;BME280;54939;50.826;9.030;2023-07-13T02:34:11;98530.94;;;30.24;36.72
68137;BME280;54939;50.826;9.030;2023-07-13T02:34:41;98530.94;;;30.24;36.67
68137;BME280;54939;50.826;9.030;2023-07-13T02:35:12;98525.41;;;30.24;36.42
68137;BME280;54939;50.826;9.030;2023-07-13T02:35:42;98521.00;;;30.23;36.72
68137;BME280;54939;50.826;9.030;2023-07-13T02:36:12;98524.91;;;30.22;36.33
68137;BME280;54939;50.826;9.030;2023-07-13T02:36:43;98520.19;;;30.22;36.23
68137;BME280;54939;50.826;9.030;2023-07-13T02:37:14;98521.00;;;30.23;36.50
68137;BME280;54939;50.826;9.030;2023-07-13T02:37:44;98529.28;;;30.23;36.56
68137;BME280;54939;50.826;9.030;2023-07-13T02:38:14;98526.53;;;30.23;36.26
68137;BME280;54939;50.826;9.030;2023-07-13T02:38:44;98518.56;;;30.21;36.38
68137;BME280;54939;50.826;9.030;2023-07-13T02:39:14;98519.41;;;30.22;36.66
68137;BME280;54939;50.826;9.030;2023-07-13T02:39:45;98524.91;;;30.22;36.58
68137;BME280;54939;50.826;9.030;2023-07-13T02:40:15;98522.16;;;30.22;36.47
68137;BME280;54939;50.826;9.030;2023-07-13T02:40:46;98523.78;;;30.23;36.63
68137;BME280;54939;50.826;9.030;2023-07-13T02:41:16;98519.41;;;30.22;36.66
68137;BME280;54939;50.826;9.030;2023-07-13T02:41:46;98523.78;;;30.23;36.33
68137;BME280;54939;50.826;9.030;2023-07-13T02:42:16;98528.47;;;30.22;36.40
68137;BME280;54939;50.826;9.030;2023-07-13T02:42:46;98521.31;;;30.21;36.24
68137;BME280;54939;50.826;9.030;2023-07-13T02:43:17;98522.16;;;30.22;36.48
68137;BME280;54939;50.826;9.030;2023-07-13T02:43:47;98524.09;;;30.21;36.33
68137;BME280;54939;50.826;9.030;2023-07-13T02:44:17;98525.69;;;30.22;36.16
68137;BME280;54939;50.826;9.030;2023-07-13T02:44:47;98521.59;;;30.20;36.42
68137;BME280;54939;50.826;9.030;2023-07-13T02:45:18;98526.00;;;30.21;36.50
68137;BME280;54939;50.826;9.030;2023-07-13T02:45:48;98524.38;;;30.20;36.08
68137;BME280;54939;50.826;9.030;2023-07-13T02:46:18;98527.13;;;30.20;36.48
68137;BME280;54939;50.826;9.030;2023-07-13T02:46:49;98533.72;;;30.19;36.38
68137;BME280;54939;50.826;9.030;2023-07-13T02:47:19;98521.88;;;30.18;36.50